メインページ
METAR-TAF:

METAR-TAF

空港 :

ハリファックス, ノバスコシア州, カナダ

ハリファックス・ロバート・L・スタンフィールド国際空港

緯度: 44-53N, 経度: 063-30W, 海抜: 145m

現時点の気象観測

当レポートは35分前の01:00(UTC)に作成
西の風 4kt
気温 4°C
湿度 81%
気圧 1017 hPa
視程: 24.1km
高度2000ftの曇り

METAR: CYHZ 240100Z 26004KT 15SM OVC020 04/01 A3003 RMK SC8 SLP176

時間: 22:35 (01:35 UTC)

予報

当レポートは1時間56分前の23:39(UTC)に作成
予報は24日の 00時(UTC)から 24日の 24時(UTC)まで有効
西/北西の風 6kt
視程: 10km
高度1500ftの曇り
24日の 00時(UTC)から 24日の 02時(UTC)まで一時的に
高度1500ftの雲は散在している
24日の 0200時(UTC)から
西の風 5kt
視程: 10km
高度2500ftの雲は散在している
24日の 02時(UTC)から 24日の 04時(UTC)まで徐々に
南/南西の風 7kt
24日の 10時(UTC)から 24日の 12時(UTC)まで徐々に
西/北西の風 8kt
24日の 1200時(UTC)から
西/北西の風 8kt
視程: 10km
高度1200ftの千切れ雲あり
24日の 1500時(UTC)から
北西の風 8kt
視程: 10km
高度2000ftの千切れ雲あり
24日の 1700時(UTC)から
西/北西の風 12kt
視程: 10km
高度2000ftの雲はほとんどない
高度7000ftの雲は散在している
24日の 2300時(UTC)から
北西の風 8kt
視程: 10km
晴天

TAF: CYHZ 232339Z 2400/2424 30006KT P6SM OVC015 TEMPO 2400/2402 SCT015 FM240200 26005KT P6SM SCT025 BECMG 2402/2404 21007KT BECMG 2410/2412 29008KT FM241200 29008KT P6SM BKN012 FM241500 31008KT P6SM BKN020 FM241700 30012KT P6SM FEW020 SCT070 FM242300 32008KT P6SM SKC RMK NXT FCST BY 240300Z

4,000以上の空港の気象観測と天気予報(METAR報とTAF報)

利用可能な観測所は地図上に黄色い丸と赤い丸で示す。

丸の上にカーソルを重ねると観測所名を参照できる。

次にクリックすると気象観測と天気予報を参照できる。

マップの切り替え:黒色「×」印の緑ボタンをクリックして拡大、「-」印の緑ボタンをクリックして縮小、緑色の三角印をクリックして隣りの地図に切り替え


METAR-TAF: